sensor_id;sensor_type;location;lat;lon;timestamp;P1;durP1;ratioP1;P2;durP2;ratioP2
19225;SDS011;9747;48.536;12.522;2023-01-05T00:01:57;1.33;;;0.90;;
19225;SDS011;9747;48.536;12.522;2023-01-05T00:04:25;0.85;;;0.85;;
19225;SDS011;9747;48.536;12.522;2023-01-05T00:06:52;1.10;;;1.10;;
19225;SDS011;9747;48.536;12.522;2023-01-05T00:09:19;0.82;;;0.80;;
19225;SDS011;9747;48.536;12.522;2023-01-05T00:11:47;1.23;;;0.88;;
19225;SDS011;9747;48.536;12.522;2023-01-05T00:14:33;0.80;;;0.80;;
19225;SDS011;9747;48.536;12.522;2023-01-05T00:17:19;0.70;;;0.70;;
19225;SDS011;9747;48.536;12.522;2023-01-05T00:20:06;0.80;;;0.80;;
19225;SDS011;9747;48.536;12.522;2023-01-05T00:22:59;0.95;;;0.93;;
19225;SDS011;9747;48.536;12.522;2023-01-05T00:25:27;0.90;;;0.88;;
19225;SDS011;9747;48.536;12.522;2023-01-05T00:27:56;0.77;;;0.77;;
19225;SDS011;9747;48.536;12.522;2023-01-05T00:30:26;0.93;;;0.93;;
19225;SDS011;9747;48.536;12.522;2023-01-05T00:32:55;0.80;;;0.80;;
19225;SDS011;9747;48.536;12.522;2023-01-05T00:35:23;0.70;;;0.70;;
19225;SDS011;9747;48.536;12.522;2023-01-05T00:37:50;0.80;;;0.80;;
19225;SDS011;9747;48.536;12.522;2023-01-05T00:40:19;0.68;;;0.68;;
19225;SDS011;9747;48.536;12.522;2023-01-05T00:42:47;0.80;;;0.80;;
19225;SDS011;9747;48.536;12.522;2023-01-05T00:45:15;0.70;;;0.70;;
19225;SDS011;9747;48.536;12.522;2023-01-05T00:47:47;0.70;;;0.70;;
19225;SDS011;9747;48.536;12.522;2023-01-05T00:50:16;1.05;;;0.80;;
19225;SDS011;9747;48.536;12.522;2023-01-05T00:52:44;0.80;;;0.80;;
19225;SDS011;9747;48.536;12.522;2023-01-05T00:55:12;0.75;;;0.75;;
19225;SDS011;9747;48.536;12.522;2023-01-05T00:57:40;0.85;;;0.85;;
19225;SDS011;9747;48.536;12.522;2023-01-05T01:00:10;0.82;;;0.82;;
19225;SDS011;9747;48.536;12.522;2023-01-05T01:02:41;0.63;;;0.63;;
19225;SDS011;9747;48.536;12.522;2023-01-05T01:05:10;0.75;;;0.75;;
19225;SDS011;9747;48.536;12.522;2023-01-05T01:07:38;0.73;;;0.73;;
19225;SDS011;9747;48.536;12.522;2023-01-05T01:10:06;0.70;;;0.70;;
19225;SDS011;9747;48.536;12.522;2023-01-05T01:12:35;1.00;;;0.80;;
19225;SDS011;9747;48.536;12.522;2023-01-05T01:15:03;0.75;;;0.70;;
19225;SDS011;9747;48.536;12.522;2023-01-05T01:17:32;0.70;;;0.70;;
19225;SDS011;9747;48.536;12.522;2023-01-05T01:20:00;0.70;;;0.70;;
19225;SDS011;9747;48.536;12.522;2023-01-05T01:22:28;1.17;;;0.77;;
19225;SDS011;9747;48.536;12.522;2023-01-05T01:24:56;0.70;;;0.70;;
19225;SDS011;9747;48.536;12.522;2023-01-05T01:27:24;0.85;;;0.85;;
19225;SDS011;9747;48.536;12.522;2023-01-05T01:29:52;0.60;;;0.60;;
19225;SDS011;9747;48.536;12.522;2023-01-05T01:32:19;0.85;;;0.85;;
19225;SDS011;9747;48.536;12.522;2023-01-05T01:34:48;0.70;;;0.70;;
19225;SDS011;9747;48.536;12.522;2023-01-05T01:37:17;0.77;;;0.77;;
19225;SDS011;9747;48.536;12.522;2023-01-05T01:39:49;0.68;;;0.68;;
19225;SDS011;9747;48.536;12.522;2023-01-05T01:42:17;0.50;;;0.50;;
19225;SDS011;9747;48.536;12.522;2023-01-05T01:44:50;0.60;;;0.60;;
19225;SDS011;9747;48.536;12.522;2023-01-05T01:47:35;0.70;;;0.70;;
19225;SDS011;9747;48.536;12.522;2023-01-05T01:50:08;0.60;;;0.60;;
19225;SDS011;9747;48.536;12.522;2023-01-05T01:52:40;0.95;;;0.68;;
19225;SDS011;9747;48.536;12.522;2023-01-05T01:55:09;0.50;;;0.50;;
19225;SDS011;9747;48.536;12.522;2023-01-05T01:57:37;0.80;;;0.80;;
19225;SDS011;9747;48.536;12.522;2023-01-05T02:00:07;0.60;;;0.60;;
19225;SDS011;9747;48.536;12.522;2023-01-05T02:02:45;0.70;;;0.70;;
19225;SDS011;9747;48.536;12.522;2023-01-05T02:05:16;0.50;;;0.50;;
19225;SDS011;9747;48.536;12.522;2023-01-05T02:07:48;0.70;;;0.70;;
19225;SDS011;9747;48.536;12.522;2023-01-05T02:10:17;0.85;;;0.85;;
19225;SDS011;9747;48.536;12.522;2023-01-05T02:12:55;0.68;;;0.68;;
19225;SDS011;9747;48.536;12.522;2023-01-05T02:15:32;0.60;;;0.60;;
19225;SDS011;9747;48.536;12.522;2023-01-05T02:18:13;0.60;;;0.60;;
19225;SDS011;9747;48.536;12.522;2023-01-05T02:20:58;0.70;;;0.70;;
19225;SDS011;9747;48.536;12.522;2023-01-05T02:27:08;0.65;;;0.65;;
19225;SDS011;9747;48.536;12.522;2023-01-05T02:30:14;0.60;;;0.60;;
19225;SDS011;9747;48.536;12.522;2023-01-05T02:33:37;0.50;;;0.50;;
19225;SDS011;9747;48.536;12.522;2023-01-05T02:36:22;0.50;;;0.50;;
19225;SDS011;9747;48.536;12.522;2023-01-05T02:38:56;0.57;;;0.57;;
19225;SDS011;9747;48.536;12.522;2023-01-05T02:41:28;0.57;;;0.57;;
19225;SDS011;9747;48.536;12.522;2023-01-05T02:44:01;0.60;;;0.60;;
19225;SDS011;9747;48.536;12.522;2023-01-05T02:46:29;0.60;;;0.60;;
19225;SDS011;9747;48.536;12.522;2023-01-05T02:48:58;0.70;;;0.70;;
19225;SDS011;9747;48.536;12.522;2023-01-05T02:51:30;0.40;;;0.40;;
19225;SDS011;9747;48.536;12.522;2023-01-05T02:54:03;0.50;;;0.50;;
19225;SDS011;9747;48.536;12.522;2023-01-05T02:56:35;0.40;;;0.40;;
19225;SDS011;9747;48.536;12.522;2023-01-05T02:59:08;0.30;;;0.30;;
19225;SDS011;9747;48.536;12.522;2023-01-05T03:01:40;0.50;;;0.50;;
19225;SDS011;9747;48.536;12.522;2023-01-05T03:04:12;0.50;;;0.50;;
19225;SDS011;9747;48.536;12.522;2023-01-05T03:06:48;0.68;;;0.68;;
19225;SDS011;9747;48.536;12.522;2023-01-05T03:09:22;0.60;;;0.60;;
19225;SDS011;9747;48.536;12.522;2023-01-05T03:11:56;0.50;;;0.50;;
19225;SDS011;9747;48.536;12.522;2023-01-05T03:14:45;0.40;;;0.40;;
19225;SDS011;9747;48.536;12.522;2023-01-05T03:17:16;0.68;;;0.43;;
19225;SDS011;9747;48.536;12.522;2023-01-05T03:19:49;0.52;;;0.52;;
19225;SDS011;9747;48.536;12.522;2023-01-05T03:22:16;0.40;;;0.40;;
19225;SDS011;9747;48.536;12.522;2023-01-05T03:25:05;0.50;;;0.50;;
19225;SDS011;9747;48.536;12.522;2023-01-05T03:27:53;0.40;;;0.40;;
19225;SDS011;9747;48.536;12.522;2023-01-05T03:30:42;0.50;;;0.50;;
19225;SDS011;9747;48.536;12.522;2023-01-05T03:33:36;0.60;;;0.60;;
19225;SDS011;9747;48.536;12.522;2023-01-05T03:36:28;0.50;;;0.50;;
19225;SDS011;9747;48.536;12.522;2023-01-05T03:38:57;0.50;;;0.50;;
19225;SDS011;9747;48.536;12.522;2023-01-05T03:41:28;0.93;;;0.70;;
19225;SDS011;9747;48.536;12.522;2023-01-05T03:43:56;0.40;;;0.40;;
19225;SDS011;9747;48.536;12.522;2023-01-05T03:46:24;0.38;;;0.38;;
19225;SDS011;9747;48.536;12.522;2023-01-05T03:48:52;0.68;;;0.68;;
19225;SDS011;9747;48.536;12.522;2023-01-05T03:51:19;0.70;;;0.70;;
19225;SDS011;9747;48.536;12.522;2023-01-05T03:53:48;0.50;;;0.50;;
19225;SDS011;9747;48.536;12.522;2023-01-05T03:56:16;0.47;;;0.47;;
19225;SDS011;9747;48.536;12.522;2023-01-05T03:58:43;0.47;;;0.47;;
19225;SDS011;9747;48.536;12.522;2023-01-05T04:01:11;0.40;;;0.40;;
19225;SDS011;9747;48.536;12.522;2023-01-05T04:03:39;0.40;;;0.40;;
19225;SDS011;9747;48.536;12.522;2023-01-05T04:06:07;0.35;;;0.35;;
19225;SDS011;9747;48.536;12.522;2023-01-05T04:08:36;0.40;;;0.40;;
19225;SDS011;9747;48.536;12.522;2023-01-05T04:11:15;0.40;;;0.40;;
19225;SDS011;9747;48.536;12.522;2023-01-05T04:13:50;0.30;;;0.30;;
19225;SDS011;9747;48.536;12.522;2023-01-05T04:16:17;0.30;;;0.30;;
19225;SDS011;9747;48.536;12.522;2023-01-05T04:18:46;0.40;;;0.40;;
19225;SDS011;9747;48.536;12.522;2023-01-05T04:21:16;0.40;;;0.40;;
19225;SDS011;9747;48.536;12.522;2023-01-05T04:23:43;0.30;;;0.30;;
19225;SDS011;9747;48.536;12.522;2023-01-05T04:26:14;0.85;;;0.40;;
19225;SDS011;9747;48.536;12.522;2023-01-05T04:28:44;0.40;;;0.40;;
19225;SDS011;9747;48.536;12.522;2023-01-05T04:31:11;0.40;;;0.40;;
19225;SDS011;9747;48.536;12.522;2023-01-05T04:33:39;0.40;;;0.40;;
19225;SDS011;9747;48.536;12.522;2023-01-05T04:36:09;0.25;;;0.25;;
19225;SDS011;9747;48.536;12.522;2023-01-05T04:38:37;0.40;;;0.40;;
19225;SDS011;9747;48.536;12.522;2023-01-05T04:41:06;0.50;;;0.50;;
19225;SDS011;9747;48.536;12.522;2023-01-05T04:43:34;0.40;;;0.40;;
19225;SDS011;9747;48.536;12.522;2023-01-05T04:46:02;0.50;;;0.40;;
19225;SDS011;9747;48.536;12.522;2023-01-05T04:48:30;0.32;;;0.32;;
19225;SDS011;9747;48.536;12.522;2023-01-05T04:50:58;0.30;;;0.30;;
19225;SDS011;9747;48.536;12.522;2023-01-05T04:53:30;0.35;;;0.35;;
19225;SDS011;9747;48.536;12.522;2023-01-05T04:55:58;0.63;;;0.40;;
19225;SDS011;9747;48.536;12.522;2023-01-05T04:58:30;0.30;;;0.30;;
19225;SDS011;9747;48.536;12.522;2023-01-05T05:00:59;0.40;;;0.40;;
19225;SDS011;9747;48.536;12.522;2023-01-05T05:03:29;0.40;;;0.40;;
19225;SDS011;9747;48.536;12.522;2023-01-05T05:05:57;0.40;;;0.40;;
19225;SDS011;9747;48.536;12.522;2023-01-05T05:08:27;0.40;;;0.40;;
19225;SDS011;9747;48.536;12.522;2023-01-05T05:10:55;0.30;;;0.30;;
19225;SDS011;9747;48.536;12.522;2023-01-05T05:13:24;0.43;;;0.43;;
19225;SDS011;9747;48.536;12.522;2023-01-05T05:15:52;2.72;;;0.50;;
19225;SDS011;9747;48.536;12.522;2023-01-05T05:18:21;0.65;;;0.50;;
19225;SDS011;9747;48.536;12.522;2023-01-05T05:20:50;3.92;;;0.60;;
19225;SDS011;9747;48.536;12.522;2023-01-05T05:23:23;2.00;;;0.70;;
19225;SDS011;9747;48.536;12.522;2023-01-05T05:25:51;0.55;;;0.55;;
19225;SDS011;9747;48.536;12.522;2023-01-05T05:28:21;0.43;;;0.43;;
19225;SDS011;9747;48.536;12.522;2023-01-05T05:30:52;1.70;;;0.57;;
19225;SDS011;9747;48.536;12.522;2023-01-05T05:33:21;2.10;;;0.60;;
19225;SDS011;9747;48.536;12.522;2023-01-05T05:35:50;0.57;;;0.50;;
19225;SDS011;9747;48.536;12.522;2023-01-05T05:38:17;2.88;;;0.80;;
19225;SDS011;9747;48.536;12.522;2023-01-05T05:40:46;1.88;;;0.85;;
19225;SDS011;9747;48.536;12.522;2023-01-05T05:43:14;3.03;;;0.80;;
19225;SDS011;9747;48.536;12.522;2023-01-05T05:45:42;1.95;;;0.60;;
19225;SDS011;9747;48.536;12.522;2023-01-05T05:48:09;2.97;;;0.90;;
19225;SDS011;9747;48.536;12.522;2023-01-05T05:50:38;4.47;;;1.08;;
19225;SDS011;9747;48.536;12.522;2023-01-05T05:53:06;1.95;;;0.70;;
19225;SDS011;9747;48.536;12.522;2023-01-05T05:55:33;2.83;;;0.70;;
19225;SDS011;9747;48.536;12.522;2023-01-05T05:58:00;1.38;;;0.70;;
19225;SDS011;9747;48.536;12.522;2023-01-05T06:00:28;2.78;;;1.02;;
19225;SDS011;9747;48.536;12.522;2023-01-05T06:02:55;0.70;;;0.60;;
19225;SDS011;9747;48.536;12.522;2023-01-05T06:05:22;1.25;;;0.60;;
19225;SDS011;9747;48.536;12.522;2023-01-05T06:07:51;1.85;;;0.60;;
19225;SDS011;9747;48.536;12.522;2023-01-05T06:10:18;1.50;;;0.65;;
19225;SDS011;9747;48.536;12.522;2023-01-05T06:12:46;2.30;;;0.65;;
19225;SDS011;9747;48.536;12.522;2023-01-05T06:15:13;3.08;;;0.82;;
19225;SDS011;9747;48.536;12.522;2023-01-05T06:17:41;1.80;;;0.60;;
19225;SDS011;9747;48.536;12.522;2023-01-05T06:20:10;0.60;;;0.60;;
19225;SDS011;9747;48.536;12.522;2023-01-05T06:22:37;0.85;;;0.57;;
19225;SDS011;9747;48.536;12.522;2023-01-05T06:25:06;0.68;;;0.68;;
19225;SDS011;9747;48.536;12.522;2023-01-05T06:27:35;0.93;;;0.57;;
19225;SDS011;9747;48.536;12.522;2023-01-05T06:30:03;1.25;;;0.60;;
19225;SDS011;9747;48.536;12.522;2023-01-05T06:32:31;0.60;;;0.50;;
19225;SDS011;9747;48.536;12.522;2023-01-05T06:34:59;0.93;;;0.75;;
19225;SDS011;9747;48.536;12.522;2023-01-05T06:37:26;1.65;;;0.70;;
19225;SDS011;9747;48.536;12.522;2023-01-05T06:39:53;0.80;;;0.65;;
19225;SDS011;9747;48.536;12.522;2023-01-05T06:42:22;0.68;;;0.60;;
19225;SDS011;9747;48.536;12.522;2023-01-05T06:44:49;3.60;;;0.70;;
19225;SDS011;9747;48.536;12.522;2023-01-05T06:47:17;1.42;;;0.52;;
19225;SDS011;9747;48.536;12.522;2023-01-05T06:49:45;0.50;;;0.50;;
19225;SDS011;9747;48.536;12.522;2023-01-05T06:52:12;2.00;;;0.70;;
19225;SDS011;9747;48.536;12.522;2023-01-05T06:54:40;0.77;;;0.60;;
19225;SDS011;9747;48.536;12.522;2023-01-05T06:57:07;1.65;;;0.70;;
19225;SDS011;9747;48.536;12.522;2023-01-05T06:59:36;0.63;;;0.57;;
19225;SDS011;9747;48.536;12.522;2023-01-05T07:02:04;0.82;;;0.82;;
19225;SDS011;9747;48.536;12.522;2023-01-05T07:04:34;1.50;;;0.60;;
19225;SDS011;9747;48.536;12.522;2023-01-05T07:07:01;0.90;;;0.80;;
19225;SDS011;9747;48.536;12.522;2023-01-05T07:09:29;0.50;;;0.50;;
19225;SDS011;9747;48.536;12.522;2023-01-05T07:11:56;0.68;;;0.68;;
19225;SDS011;9747;48.536;12.522;2023-01-05T07:14:23;0.60;;;0.60;;
19225;SDS011;9747;48.536;12.522;2023-01-05T07:16:52;0.73;;;0.73;;
19225;SDS011;9747;48.536;12.522;2023-01-05T07:19:19;0.60;;;0.60;;
19225;SDS011;9747;48.536;12.522;2023-01-05T07:21:47;1.08;;;0.50;;
19225;SDS011;9747;48.536;12.522;2023-01-05T07:24:14;0.95;;;0.70;;
19225;SDS011;9747;48.536;12.522;2023-01-05T07:26:42;0.70;;;0.60;;
19225;SDS011;9747;48.536;12.522;2023-01-05T07:29:09;0.77;;;0.63;;
19225;SDS011;9747;48.536;12.522;2023-01-05T07:31:36;0.70;;;0.60;;
19225;SDS011;9747;48.536;12.522;2023-01-05T07:34:05;1.23;;;0.70;;
19225;SDS011;9747;48.536;12.522;2023-01-05T07:36:33;2.47;;;0.60;;
19225;SDS011;9747;48.536;12.522;2023-01-05T07:39:01;0.80;;;0.80;;
19225;SDS011;9747;48.536;12.522;2023-01-05T07:41:28;0.70;;;0.70;;
19225;SDS011;9747;48.536;12.522;2023-01-05T07:43:56;2.42;;;0.73;;
19225;SDS011;9747;48.536;12.522;2023-01-05T07:46:23;0.50;;;0.50;;
19225;SDS011;9747;48.536;12.522;2023-01-05T07:48:51;0.60;;;0.60;;
19225;SDS011;9747;48.536;12.522;2023-01-05T07:51:19;0.85;;;0.63;;
19225;SDS011;9747;48.536;12.522;2023-01-05T07:53:47;0.60;;;0.60;;
19225;SDS011;9747;48.536;12.522;2023-01-05T07:56:14;0.60;;;0.60;;
19225;SDS011;9747;48.536;12.522;2023-01-05T07:58:42;0.70;;;0.70;;
19225;SDS011;9747;48.536;12.522;2023-01-05T08:01:11;0.70;;;0.70;;
19225;SDS011;9747;48.536;12.522;2023-01-05T08:03:41;2.08;;;0.70;;
19225;SDS011;9747;48.536;12.522;2023-01-05T08:06:09;2.28;;;0.65;;
19225;SDS011;9747;48.536;12.522;2023-01-05T08:08:40;6.43;;;2.50;;
19225;SDS011;9747;48.536;12.522;2023-01-05T08:11:08;4.93;;;1.90;;
19225;SDS011;9747;48.536;12.522;2023-01-05T08:13:39;5.03;;;1.85;;
19225;SDS011;9747;48.536;12.522;2023-01-05T08:16:26;4.78;;;1.90;;
19225;SDS011;9747;48.536;12.522;2023-01-05T08:18:55;5.30;;;1.70;;
19225;SDS011;9747;48.536;12.522;2023-01-05T08:21:22;2.90;;;1.40;;
19225;SDS011;9747;48.536;12.522;2023-01-05T08:23:51;4.57;;;1.52;;
19225;SDS011;9747;48.536;12.522;2023-01-05T08:26:19;3.17;;;1.50;;
19225;SDS011;9747;48.536;12.522;2023-01-05T08:28:48;1.40;;;1.30;;
19225;SDS011;9747;48.536;12.522;2023-01-05T08:31:16;2.47;;;1.33;;
19225;SDS011;9747;48.536;12.522;2023-01-05T08:33:46;1.27;;;1.20;;
19225;SDS011;9747;48.536;12.522;2023-01-05T08:36:14;2.08;;;1.23;;
19225;SDS011;9747;48.536;12.522;2023-01-05T08:38:44;3.25;;;1.10;;
19225;SDS011;9747;48.536;12.522;2023-01-05T08:41:17;4.88;;;1.60;;
19225;SDS011;9747;48.536;12.522;2023-01-05T08:43:50;7.00;;;3.85;;
19225;SDS011;9747;48.536;12.522;2023-01-05T08:46:18;37.88;;;34.10;;
19225;SDS011;9747;48.536;12.522;2023-01-05T08:48:47;13.52;;;11.68;;
19225;SDS011;9747;48.536;12.522;2023-01-05T08:51:15;14.68;;;13.38;;
19225;SDS011;9747;48.536;12.522;2023-01-05T08:53:43;12.73;;;11.63;;
19225;SDS011;9747;48.536;12.522;2023-01-05T08:56:10;11.55;;;9.40;;
19225;SDS011;9747;48.536;12.522;2023-01-05T08:58:40;9.13;;;8.32;;
19225;SDS011;9747;48.536;12.522;2023-01-05T09:01:08;8.65;;;7.85;;
19225;SDS011;9747;48.536;12.522;2023-01-05T09:03:37;7.57;;;6.78;;
19225;SDS011;9747;48.536;12.522;2023-01-05T09:06:05;6.90;;;6.20;;
19225;SDS011;9747;48.536;12.522;2023-01-05T09:08:36;6.43;;;5.63;;
19225;SDS011;9747;48.536;12.522;2023-01-05T09:11:04;5.75;;;5.13;;
19225;SDS011;9747;48.536;12.522;2023-01-05T09:13:33;4.97;;;4.63;;
19225;SDS011;9747;48.536;12.522;2023-01-05T09:16:06;4.90;;;4.50;;
19225;SDS011;9747;48.536;12.522;2023-01-05T09:18:36;5.25;;;4.75;;
19225;SDS011;9747;48.536;12.522;2023-01-05T09:21:04;4.85;;;4.45;;
19225;SDS011;9747;48.536;12.522;2023-01-05T09:23:32;4.78;;;4.20;;
19225;SDS011;9747;48.536;12.522;2023-01-05T09:26:01;4.47;;;4.07;;
19225;SDS011;9747;48.536;12.522;2023-01-05T09:28:29;4.13;;;3.80;;
19225;SDS011;9747;48.536;12.522;2023-01-05T09:30:57;4.10;;;3.60;;
19225;SDS011;9747;48.536;12.522;2023-01-05T09:33:26;3.80;;;3.50;;
19225;SDS011;9747;48.536;12.522;2023-01-05T09:35:53;4.05;;;3.72;;
19225;SDS011;9747;48.536;12.522;2023-01-05T09:38:21;4.05;;;3.75;;
19225;SDS011;9747;48.536;12.522;2023-01-05T09:40:49;3.88;;;3.50;;
19225;SDS011;9747;48.536;12.522;2023-01-05T09:43:20;3.30;;;3.10;;
19225;SDS011;9747;48.536;12.522;2023-01-05T09:45:51;3.92;;;3.60;;
19225;SDS011;9747;48.536;12.522;2023-01-05T09:48:18;3.10;;;2.90;;
19225;SDS011;9747;48.536;12.522;2023-01-05T09:50:48;3.10;;;2.80;;
19225;SDS011;9747;48.536;12.522;2023-01-05T09:53:18;3.10;;;2.90;;
19225;SDS011;9747;48.536;12.522;2023-01-05T09:55:53;2.95;;;2.67;;
19225;SDS011;9747;48.536;12.522;2023-01-05T09:58:21;2.80;;;2.60;;
19225;SDS011;9747;48.536;12.522;2023-01-05T10:00:55;2.78;;;2.67;;
19225;SDS011;9747;48.536;12.522;2023-01-05T10:03:32;2.47;;;2.38;;
19225;SDS011;9747;48.536;12.522;2023-01-05T10:08:37;2.67;;;2.50;;
19225;SDS011;9747;48.536;12.522;2023-01-05T10:11:07;2.70;;;2.50;;
19225;SDS011;9747;48.536;12.522;2023-01-05T10:13:56;2.47;;;2.28;;
19225;SDS011;9747;48.536;12.522;2023-01-05T10:16:27;2.40;;;2.20;;
19225;SDS011;9747;48.536;12.522;2023-01-05T10:18:55;2.47;;;2.25;;
19225;SDS011;9747;48.536;12.522;2023-01-05T10:21:25;2.28;;;2.17;;
19225;SDS011;9747;48.536;12.522;2023-01-05T10:24:02;2.70;;;2.15;;
19225;SDS011;9747;48.536;12.522;2023-01-05T10:26:40;2.30;;;2.10;;
19225;SDS011;9747;48.536;12.522;2023-01-05T10:29:11;1.90;;;1.90;;
19225;SDS011;9747;48.536;12.522;2023-01-05T10:31:44;2.75;;;2.20;;
19225;SDS011;9747;48.536;12.522;2023-01-05T10:34:33;2.47;;;2.08;;
19225;SDS011;9747;48.536;12.522;2023-01-05T10:40:31;2.00;;;1.90;;
19225;SDS011;9747;48.536;12.522;2023-01-05T10:43:11;2.47;;;2.10;;
19225;SDS011;9747;48.536;12.522;2023-01-05T10:45:48;2.20;;;2.00;;
19225;SDS011;9747;48.536;12.522;2023-01-05T10:48:16;2.63;;;2.10;;
19225;SDS011;9747;48.536;12.522;2023-01-05T10:50:47;1.92;;;1.83;;
19225;SDS011;9747;48.536;12.522;2023-01-05T10:53:17;2.10;;;2.00;;
19225;SDS011;9747;48.536;12.522;2023-01-05T10:55:52;1.70;;;1.63;;
19225;SDS011;9747;48.536;12.522;2023-01-05T10:58:24;1.92;;;1.83;;
19225;SDS011;9747;48.536;12.522;2023-01-05T11:00:54;2.00;;;1.77;;
19225;SDS011;9747;48.536;12.522;2023-01-05T11:03:26;2.17;;;1.95;;
19225;SDS011;9747;48.536;12.522;2023-01-05T11:06:05;2.20;;;2.00;;
19225;SDS011;9747;48.536;12.522;2023-01-05T11:08:35;2.45;;;2.10;;
19225;SDS011;9747;48.536;12.522;2023-01-05T11:11:03;2.67;;;2.30;;
19225;SDS011;9747;48.536;12.522;2023-01-05T11:13:33;2.08;;;1.88;;
19225;SDS011;9747;48.536;12.522;2023-01-05T11:16:06;3.63;;;2.63;;
19225;SDS011;9747;48.536;12.522;2023-01-05T11:18:39;2.40;;;2.20;;
19225;SDS011;9747;48.536;12.522;2023-01-05T11:21:14;2.60;;;2.40;;
19225;SDS011;9747;48.536;12.522;2023-01-05T11:23:46;2.25;;;2.15;;
19225;SDS011;9747;48.536;12.522;2023-01-05T11:26:25;2.92;;;2.72;;
19225;SDS011;9747;48.536;12.522;2023-01-05T11:28:59;2.92;;;2.63;;
19225;SDS011;9747;48.536;12.522;2023-01-05T11:31:48;3.15;;;2.60;;
19225;SDS011;9747;48.536;12.522;2023-01-05T11:34:26;2.17;;;2.08;;
19225;SDS011;9747;48.536;12.522;2023-01-05T11:37:03;2.85;;;2.58;;
19225;SDS011;9747;48.536;12.522;2023-01-05T11:39:34;2.58;;;2.38;;
19225;SDS011;9747;48.536;12.522;2023-01-05T11:42:07;2.58;;;2.38;;
19225;SDS011;9747;48.536;12.522;2023-01-05T11:44:41;2.75;;;2.55;;
19225;SDS011;9747;48.536;12.522;2023-01-05T11:47:16;2.25;;;2.15;;
19225;SDS011;9747;48.536;12.522;2023-01-05T11:49:48;2.42;;;2.22;;
19225;SDS011;9747;48.536;12.522;2023-01-05T11:52:23;2.35;;;2.13;;
19225;SDS011;9747;48.536;12.522;2023-01-05T11:54:54;2.50;;;2.30;;
19225;SDS011;9747;48.536;12.522;2023-01-05T11:57:24;2.28;;;2.08;;
19225;SDS011;9747;48.536;12.522;2023-01-05T11:59:52;4.28;;;2.28;;
19225;SDS011;9747;48.536;12.522;2023-01-05T12:05:43;2.53;;;2.30;;
19225;SDS011;9747;48.536;12.522;2023-01-05T12:08:15;2.75;;;2.10;;
19225;SDS011;9747;48.536;12.522;2023-01-05T12:10:49;2.60;;;1.90;;
19225;SDS011;9747;48.536;12.522;2023-01-05T12:13:36;1.90;;;1.77;;
19225;SDS011;9747;48.536;12.522;2023-01-05T12:16:27;2.47;;;2.28;;
19225;SDS011;9747;48.536;12.522;2023-01-05T12:19:13;2.38;;;2.13;;
19225;SDS011;9747;48.536;12.522;2023-01-05T12:25:25;1.90;;;1.80;;
19225;SDS011;9747;48.536;12.522;2023-01-05T12:28:10;9.70;;;3.28;;
19225;SDS011;9747;48.536;12.522;2023-01-05T12:30:51;6.10;;;2.67;;
19225;SDS011;9747;48.536;12.522;2023-01-05T12:33:27;5.40;;;2.67;;
19225;SDS011;9747;48.536;12.522;2023-01-05T12:36:15;4.32;;;2.22;;
19225;SDS011;9747;48.536;12.522;2023-01-05T12:38:55;5.00;;;2.90;;
19225;SDS011;9747;48.536;12.522;2023-01-05T12:44:35;2.40;;;2.20;;
19225;SDS011;9747;48.536;12.522;2023-01-05T12:47:17;3.38;;;2.13;;
19225;SDS011;9747;48.536;12.522;2023-01-05T12:50:10;3.35;;;2.03;;
19225;SDS011;9747;48.536;12.522;2023-01-05T12:52:49;3.97;;;2.50;;
19225;SDS011;9747;48.536;12.522;2023-01-05T12:55:20;5.18;;;2.42;;
19225;SDS011;9747;48.536;12.522;2023-01-05T12:57:51;4.28;;;3.42;;
19225;SDS011;9747;48.536;12.522;2023-01-05T13:00:24;7.15;;;2.78;;
19225;SDS011;9747;48.536;12.522;2023-01-05T13:02:54;4.43;;;3.25;;
19225;SDS011;9747;48.536;12.522;2023-01-05T13:05:26;4.00;;;3.55;;
19225;SDS011;9747;48.536;12.522;2023-01-05T13:07:59;4.93;;;3.63;;
19225;SDS011;9747;48.536;12.522;2023-01-05T13:10:32;3.60;;;3.30;;
19225;SDS011;9747;48.536;12.522;2023-01-05T13:13:05;5.72;;;3.60;;
19225;SDS011;9747;48.536;12.522;2023-01-05T13:15:40;4.85;;;3.75;;
19225;SDS011;9747;48.536;12.522;2023-01-05T13:18:12;5.03;;;3.35;;
19225;SDS011;9747;48.536;12.522;2023-01-05T13:20:43;5.18;;;3.42;;
19225;SDS011;9747;48.536;12.522;2023-01-05T13:23:15;5.10;;;3.50;;
19225;SDS011;9747;48.536;12.522;2023-01-05T13:25:47;4.25;;;3.50;;
19225;SDS011;9747;48.536;12.522;2023-01-05T13:28:19;5.03;;;3.72;;
19225;SDS011;9747;48.536;12.522;2023-01-05T13:30:56;5.20;;;3.55;;
19225;SDS011;9747;48.536;12.522;2023-01-05T13:33:47;5.25;;;3.60;;
19225;SDS011;9747;48.536;12.522;2023-01-05T13:36:40;4.35;;;3.47;;
19225;SDS011;9747;48.536;12.522;2023-01-05T13:39:29;3.90;;;3.35;;
19225;SDS011;9747;48.536;12.522;2023-01-05T13:42:22;4.55;;;3.25;;
19225;SDS011;9747;48.536;12.522;2023-01-05T13:48:45;4.28;;;3.17;;
19225;SDS011;9747;48.536;12.522;2023-01-05T13:51:51;3.75;;;2.88;;
19225;SDS011;9747;48.536;12.522;2023-01-05T13:54:32;3.92;;;2.85;;
19225;SDS011;9747;48.536;12.522;2023-01-05T13:57:05;5.72;;;4.38;;
19225;SDS011;9747;48.536;12.522;2023-01-05T13:59:34;6.15;;;3.90;;
19225;SDS011;9747;48.536;12.522;2023-01-05T14:02:03;6.90;;;4.00;;
19225;SDS011;9747;48.536;12.522;2023-01-05T14:04:44;3.70;;;3.40;;
19225;SDS011;9747;48.536;12.522;2023-01-05T14:07:12;9.30;;;3.42;;
19225;SDS011;9747;48.536;12.522;2023-01-05T14:09:42;6.05;;;3.13;;
19225;SDS011;9747;48.536;12.522;2023-01-05T14:12:22;5.15;;;2.88;;
19225;SDS011;9747;48.536;12.522;2023-01-05T14:18:07;6.15;;;2.90;;
19225;SDS011;9747;48.536;12.522;2023-01-05T14:20:37;3.42;;;2.75;;
19225;SDS011;9747;48.536;12.522;2023-01-05T14:26:17;4.18;;;2.40;;
19225;SDS011;9747;48.536;12.522;2023-01-05T14:32:29;2.60;;;2.00;;
19225;SDS011;9747;48.536;12.522;2023-01-05T14:35:01;14.80;;;6.25;;
19225;SDS011;9747;48.536;12.522;2023-01-05T14:37:49;7.60;;;2.97;;
19225;SDS011;9747;48.536;12.522;2023-01-05T14:40:27;4.10;;;2.63;;
19225;SDS011;9747;48.536;12.522;2023-01-05T14:43:02;3.20;;;2.53;;
19225;SDS011;9747;48.536;12.522;2023-01-05T14:45:33;3.47;;;2.65;;
19225;SDS011;9747;48.536;12.522;2023-01-05T14:48:02;4.15;;;2.50;;
19225;SDS011;9747;48.536;12.522;2023-01-05T14:50:35;5.38;;;2.60;;
19225;SDS011;9747;48.536;12.522;2023-01-05T14:53:10;4.68;;;2.33;;
19225;SDS011;9747;48.536;12.522;2023-01-05T14:55:40;4.40;;;2.80;;
19225;SDS011;9747;48.536;12.522;2023-01-05T14:58:51;5.43;;;2.50;;
19225;SDS011;9747;48.536;12.522;2023-01-05T15:01:27;2.90;;;2.47;;
19225;SDS011;9747;48.536;12.522;2023-01-05T15:04:03;3.30;;;2.42;;
19225;SDS011;9747;48.536;12.522;2023-01-05T15:06:39;3.58;;;2.30;;
19225;SDS011;9747;48.536;12.522;2023-01-05T15:12:26;9.43;;;5.65;;
19225;SDS011;9747;48.536;12.522;2023-01-05T15:21:40;7.43;;;4.30;;
19225;SDS011;9747;48.536;12.522;2023-01-05T15:30:41;5.88;;;4.53;;
19225;SDS011;9747;48.536;12.522;2023-01-05T15:33:23;5.20;;;4.05;;
19225;SDS011;9747;48.536;12.522;2023-01-05T15:35:59;4.50;;;4.00;;
19225;SDS011;9747;48.536;12.522;2023-01-05T15:38:42;6.15;;;3.80;;
19225;SDS011;9747;48.536;12.522;2023-01-05T15:41:11;5.53;;;4.25;;
19225;SDS011;9747;48.536;12.522;2023-01-05T15:43:40;4.82;;;3.63;;
19225;SDS011;9747;48.536;12.522;2023-01-05T15:46:08;6.68;;;4.18;;
19225;SDS011;9747;48.536;12.522;2023-01-05T15:48:42;6.55;;;4.10;;
19225;SDS011;9747;48.536;12.522;2023-01-05T15:51:19;5.28;;;3.83;;
19225;SDS011;9747;48.536;12.522;2023-01-05T15:53:54;4.15;;;3.50;;
19225;SDS011;9747;48.536;12.522;2023-01-05T15:56:24;6.75;;;3.50;;
19225;SDS011;9747;48.536;12.522;2023-01-05T15:58:56;4.57;;;3.03;;
19225;SDS011;9747;48.536;12.522;2023-01-05T16:01:24;4.65;;;3.58;;
19225;SDS011;9747;48.536;12.522;2023-01-05T16:04:03;4.80;;;3.10;;
19225;SDS011;9747;48.536;12.522;2023-01-05T16:06:32;5.15;;;3.42;;
19225;SDS011;9747;48.536;12.522;2023-01-05T16:09:08;4.00;;;3.03;;